createdAt,value
2019-06-10T00:02:07.157Z,98915.70
2019-06-10T00:04:37.002Z,98918.44
2019-06-10T00:07:07.391Z,98913.42
2019-06-10T00:09:37.235Z,98914.75
2019-06-10T00:12:08.180Z,98915.23
2019-06-10T00:14:38.812Z,98895.70
2019-06-10T00:17:10.815Z,98904.64
2019-06-10T00:19:40.962Z,98908.42
2019-06-10T00:22:11.659Z,98903.31
2019-06-10T00:24:41.473Z,98927.13
2019-06-10T00:27:11.721Z,98946.16
2019-06-10T00:29:41.729Z,98955.53
2019-06-10T00:32:13.231Z,98953.24
2019-06-10T00:34:42.799Z,98959.93
2019-06-10T00:37:14.487Z,98954.45
2019-06-10T00:39:43.568Z,98958.97
2019-06-10T00:42:15.188Z,98954.59
2019-06-10T00:44:45.021Z,98956.59
2019-06-10T00:47:15.477Z,98960.52
2019-06-10T00:49:45.152Z,98963.38
2019-06-10T00:52:14.654Z,98942.84
2019-06-10T00:54:44.191Z,98912.67
2019-06-10T00:57:13.871Z,98900.31
2019-06-10T00:59:43.513Z,98883.41
2019-06-10T01:02:14.486Z,98893.41
2019-06-10T01:04:45.082Z,98912.28
2019-06-10T01:07:15.048Z,98927.14
2019-06-10T01:09:44.706Z,98926.80
2019-06-10T01:12:15.013Z,98926.86
2019-06-10T01:14:44.710Z,98916.28
2019-06-10T01:17:15.505Z,98902.24
2019-06-10T01:19:45.344Z,98898.53
2019-06-10T01:22:15.899Z,98898.38
2019-06-10T01:24:46.115Z,98905.27
2019-06-10T01:27:16.008Z,98911.70
2019-06-10T01:29:45.522Z,98902.33
2019-06-10T01:32:15.164Z,98890.94
2019-06-10T01:34:44.738Z,98883.91
2019-06-10T01:37:14.799Z,98880.66
2019-06-10T01:39:45.557Z,98902.08
2019-06-10T01:42:15.896Z,98891.27
2019-06-10T01:44:46.385Z,98880.66
2019-06-10T01:47:17.419Z,98885.10
2019-06-10T01:49:47.180Z,98877.36
2019-06-10T01:52:18.221Z,98870.83
2019-06-10T01:54:47.999Z,98862.00
2019-06-10T01:57:18.649Z,98854.41
2019-06-10T01:59:50.746Z,98851.20
2019-06-10T02:02:23.775Z,98848.97
2019-06-10T02:04:52.805Z,98851.34
2019-06-10T02:07:23.252Z,98845.88
2019-06-10T02:09:52.785Z,98844.10
2019-06-10T02:12:24.013Z,98855.51
2019-06-10T02:14:53.949Z,98867.63
2019-06-10T02:17:24.094Z,98872.73
2019-06-10T02:19:53.810Z,98889.63
2019-06-10T02:22:24.497Z,98888.41
2019-06-10T02:24:54.596Z,98903.52
2019-06-10T02:27:24.199Z,98911.25
2019-06-10T02:29:53.700Z,98894.97
2019-06-10T02:32:31.829Z,98866.55
2019-06-10T02:35:08.207Z,98866.08
2019-06-10T02:37:32.695Z,98880.36
2019-06-10T02:39:57.178Z,98863.84
2019-06-10T02:42:35.587Z,98842.44
2019-06-10T02:45:03.735Z,98834.80
2019-06-10T02:47:37.877Z,98825.67
2019-06-10T02:50:09.233Z,98830.16
2019-06-10T02:52:39.143Z,98844.32
2019-06-10T02:55:08.998Z,98883.67
2019-06-10T02:57:40.292Z,98923.41
2019-06-10T03:00:20.913Z,98913.52
2019-06-10T03:02:45.173Z,98893.39
2019-06-10T03:05:18.815Z,98891.03
2019-06-10T03:07:47.708Z,98900.45
2019-06-10T03:10:19.534Z,98902.80
2019-06-10T03:12:48.683Z,98901.26
2019-06-10T03:15:18.328Z,98904.83
2019-06-10T03:17:47.877Z,98904.02
2019-06-10T03:20:17.922Z,98898.09
2019-06-10T03:22:47.629Z,98883.67
2019-06-10T03:25:18.288Z,98863.22
2019-06-10T03:27:48.021Z,98839.62
2019-06-10T03:30:26.752Z,98832.78
2019-06-10T03:32:49.606Z,98824.45
2019-06-10T03:35:19.333Z,98805.14
2019-06-10T03:37:49.321Z,98799.55
2019-06-10T03:40:18.894Z,98798.82
2019-06-10T03:42:48.498Z,98797.05
2019-06-10T03:45:19.211Z,98801.35
2019-06-10T03:47:48.824Z,98808.81
2019-06-10T03:50:19.325Z,98818.59
2019-06-10T03:52:48.905Z,98814.42
2019-06-10T03:55:19.305Z,98821.91
2019-06-10T03:57:49.349Z,98824.65
2019-06-10T04:00:19.538Z,98809.05
2019-06-10T04:02:49.202Z,98804.77
2019-06-10T04:05:19.442Z,98796.95
2019-06-10T04:07:49.100Z,98789.87
2019-06-10T04:10:19.570Z,98795.44
2019-06-10T04:12:49.225Z,98784.97
2019-06-10T04:15:19.735Z,98776.42
2019-06-10T04:17:49.386Z,98775.95
2019-06-10T04:20:19.763Z,98782.00
2019-06-10T04:22:49.383Z,98775.52
2019-06-10T04:25:19.802Z,98782.66
2019-06-10T04:27:49.528Z,98794.53
2019-06-10T04:30:20.096Z,98793.25
2019-06-10T04:32:49.835Z,98791.59
2019-06-10T04:35:20.995Z,98799.17
2019-06-10T04:37:52.055Z,98790.38
2019-06-10T04:40:24.438Z,98773.78
2019-06-10T04:42:53.091Z,98781.84
2019-06-10T04:45:23.621Z,98779.91
2019-06-10T04:47:53.858Z,98789.42
2019-06-10T04:50:34.537Z,98797.03
2019-06-10T04:52:54.630Z,98787.51
2019-06-10T04:55:26.189Z,98777.29
2019-06-10T04:57:55.886Z,98782.98
2019-06-10T05:00:27.572Z,98794.52
2019-06-10T05:02:56.781Z,98796.98
2019-06-10T05:05:27.275Z,98797.91
2019-06-10T05:07:57.611Z,98799.42
2019-06-10T05:10:28.363Z,98791.67
2019-06-10T05:12:58.376Z,98792.80
2019-06-10T05:15:29.830Z,98788.65
2019-06-10T05:17:59.141Z,98781.39
2019-06-10T05:20:46.767Z,98777.38
2019-06-10T05:23:02.160Z,98783.48
2019-06-10T05:25:32.732Z,98788.09
2019-06-10T05:28:02.944Z,98788.67
2019-06-10T05:30:34.104Z,98791.66
2019-06-10T05:33:03.763Z,98790.84
2019-06-10T05:35:34.057Z,98798.45
2019-06-10T05:38:03.826Z,98805.72
2019-06-10T05:40:34.241Z,98817.57
2019-06-10T05:43:03.957Z,98826.95
2019-06-10T05:45:35.151Z,98827.42
2019-06-10T05:48:04.854Z,98826.28
2019-06-10T05:50:35.025Z,98831.88
2019-06-10T05:53:05.048Z,98828.81
2019-06-10T05:55:35.272Z,98817.29
2019-06-10T05:58:05.005Z,98824.31
2019-06-10T06:00:35.501Z,98822.16
2019-06-10T06:03:05.262Z,98824.88
2019-06-10T06:05:37.648Z,98817.75
2019-06-10T06:08:08.863Z,98809.69
2019-06-10T06:10:37.947Z,98807.94
2019-06-10T06:13:07.459Z,98822.67
2019-06-10T06:15:38.074Z,98815.53
2019-06-10T06:18:10.737Z,98821.55
2019-06-10T06:20:39.167Z,98829.06
2019-06-10T06:23:09.282Z,98835.22
2019-06-10T06:25:42.917Z,98841.83
2019-06-10T06:28:12.433Z,98838.66
2019-06-10T06:30:42.305Z,98838.06
2019-06-10T06:33:13.758Z,98841.41
2019-06-10T06:35:46.392Z,98835.70
2019-06-10T06:38:14.504Z,98835.63
2019-06-10T06:40:44.712Z,98841.80
2019-06-10T06:43:14.224Z,98850.28
2019-06-10T06:45:43.823Z,98855.99
2019-06-10T06:48:13.339Z,98859.92
2019-06-10T06:51:00.327Z,98870.09
2019-06-10T06:53:24.563Z,98874.55
2019-06-10T06:55:46.367Z,98880.61
2019-06-10T06:58:16.224Z,98885.23
2019-06-10T07:01:00.106Z,98885.61
2019-06-10T07:03:16.997Z,98882.06
2019-06-10T07:05:47.442Z,98873.48
2019-06-10T07:08:17.796Z,98871.71
2019-06-10T07:10:48.777Z,98869.67
2019-06-10T07:13:18.289Z,98867.66
2019-06-10T07:15:48.701Z,98863.52
2019-06-10T07:18:18.281Z,98860.78
2019-06-10T07:20:47.820Z,98869.39
2019-06-10T07:23:17.445Z,98867.47
2019-06-10T07:25:47.694Z,98869.94
2019-06-10T07:28:17.443Z,98860.31
2019-06-10T07:30:51.674Z,98866.83
2019-06-10T07:33:18.501Z,98872.66
2019-06-10T07:35:48.034Z,98868.27
2019-06-10T07:38:17.538Z,98869.56
2019-06-10T07:40:47.083Z,98878.95
2019-06-10T07:43:16.850Z,98872.02
2019-06-10T07:45:48.038Z,98879.59
2019-06-10T07:48:17.982Z,98887.23
2019-06-10T07:50:47.580Z,98890.42
2019-06-10T07:53:17.090Z,98897.66
2019-06-10T07:55:46.766Z,98896.49
2019-06-10T07:58:16.325Z,98901.29
2019-06-10T08:00:48.286Z,98915.09
2019-06-10T08:03:17.571Z,98914.88
2019-06-10T08:05:47.309Z,98908.75
2019-06-10T08:08:17.386Z,98908.29
2019-06-10T08:10:48.166Z,98899.59
2019-06-10T08:13:17.924Z,98892.84
2019-06-10T08:15:48.395Z,98883.72
2019-06-10T08:18:18.319Z,98881.44
2019-06-10T08:20:48.278Z,98866.61
2019-06-10T08:23:20.089Z,98858.44
2019-06-10T08:25:54.622Z,98853.94
2019-06-10T08:28:22.959Z,98854.55
2019-06-10T08:30:53.523Z,98845.47
2019-06-10T08:33:23.239Z,98839.18
2019-06-10T08:35:59.428Z,98829.53
2019-06-10T08:38:24.202Z,98823.00
2019-06-10T08:40:54.170Z,98808.94
2019-06-10T08:43:23.752Z,98813.80
2019-06-10T08:45:53.639Z,98810.94
2019-06-10T08:48:23.481Z,98805.48
2019-06-10T08:50:54.049Z,98786.55
2019-06-10T08:53:23.689Z,98792.84
2019-06-10T08:55:53.799Z,98804.01
2019-06-10T08:58:23.749Z,98800.92
2019-06-10T09:00:53.966Z,98795.42
2019-06-10T09:03:23.896Z,98796.86
2019-06-10T09:05:56.245Z,98789.26
2019-06-10T09:08:26.348Z,98791.41
2019-06-10T09:10:55.992Z,98786.26
2019-06-10T09:13:25.686Z,98775.05
2019-06-10T09:16:11.803Z,98763.04
2019-06-10T09:18:27.003Z,98754.92
2019-06-10T09:20:56.562Z,98733.58
2019-06-10T09:23:26.342Z,98722.37
2019-06-10T09:25:57.681Z,98707.50
2019-06-10T09:28:27.513Z,98691.64
2019-06-10T09:30:59.455Z,98686.98
2019-06-10T09:33:28.345Z,98685.14
2019-06-10T09:35:57.874Z,98671.75
2019-06-10T09:38:27.391Z,98657.88
2019-06-10T09:41:01.670Z,98650.81
2019-06-10T09:43:28.295Z,98640.26
2019-06-10T09:45:58.176Z,98635.62
2019-06-10T09:48:27.816Z,98633.70
2019-06-10T09:50:59.077Z,98628.55
2019-06-10T09:53:38.988Z,98617.48
2019-06-10T09:56:00.276Z,98617.61
2019-06-10T09:58:29.931Z,98623.55
2019-06-10T10:01:02.963Z,98632.13
2019-06-10T10:03:32.910Z,98627.73
2019-06-10T10:06:14.466Z,98631.31
2019-06-10T10:08:37.859Z,98623.01
2019-06-10T10:11:07.407Z,98611.00
2019-06-10T10:13:36.907Z,98623.01
2019-06-10T10:16:06.691Z,98620.19
2019-06-10T10:18:36.550Z,98617.42
2019-06-10T10:21:06.234Z,98625.34
2019-06-10T10:23:50.188Z,98631.22
2019-06-10T10:26:07.060Z,98638.57
2019-06-10T10:28:36.732Z,98652.63
2019-06-10T10:31:06.350Z,98650.47
2019-06-10T10:33:35.880Z,98649.85
2019-06-10T10:36:05.533Z,98657.45
2019-06-10T10:38:35.110Z,98652.98
2019-06-10T10:41:05.141Z,98648.62
2019-06-10T10:43:37.673Z,98635.57
2019-06-10T10:46:06.530Z,98638.66
2019-06-10T10:48:36.080Z,98635.89
2019-06-10T10:51:05.748Z,98631.22
2019-06-10T10:53:35.359Z,98630.39
2019-06-10T10:56:05.005Z,98632.05
2019-06-10T10:58:34.536Z,98626.50
2019-06-10T11:01:04.811Z,98624.49
2019-06-10T11:03:34.841Z,98630.92
2019-06-10T11:06:04.418Z,98626.84
2019-06-10T11:08:34.058Z,98624.02
2019-06-10T11:11:05.131Z,98617.03
2019-06-10T11:13:37.320Z,98615.47
2019-06-10T11:16:07.180Z,98607.47
2019-06-10T11:18:36.720Z,98597.50
2019-06-10T11:21:06.378Z,98592.61
2019-06-10T11:23:36.181Z,98569.70
2019-06-10T11:26:06.433Z,98570.00
2019-06-10T11:28:36.097Z,98558.34
2019-06-10T11:31:06.247Z,98563.42
2019-06-10T11:33:35.783Z,98553.13
2019-06-10T11:36:05.530Z,98539.19
2019-06-10T11:38:35.076Z,98535.36
2019-06-10T11:41:04.586Z,98524.37
2019-06-10T11:43:34.219Z,98538.83
2019-06-10T11:46:07.431Z,98540.54
2019-06-10T11:48:35.215Z,98548.50
2019-06-10T11:51:05.068Z,98551.13
2019-06-10T11:53:34.862Z,98537.28
2019-06-10T11:56:04.890Z,98550.37
2019-06-10T11:58:34.874Z,98572.23
2019-06-10T12:01:04.456Z,98570.23
2019-06-10T12:03:34.120Z,98570.16
2019-06-10T12:06:05.424Z,98588.09
2019-06-10T12:08:35.353Z,98605.18
2019-06-10T12:11:04.926Z,98611.02
2019-06-10T12:13:34.891Z,98612.07
2019-06-10T12:17:05.192Z,98611.52
2019-06-10T12:18:35.891Z,98583.92
2019-06-10T12:21:05.626Z,98526.72
2019-06-10T12:23:35.290Z,98530.98
2019-06-10T12:26:05.483Z,98562.89
2019-06-10T12:28:35.465Z,98564.13
2019-06-10T12:31:07.255Z,98555.12
2019-06-10T12:33:36.334Z,98550.98
2019-06-10T12:36:07.548Z,98534.09
2019-06-10T12:38:37.621Z,98534.94
2019-06-10T12:41:09.945Z,98543.91
2019-06-10T12:43:38.455Z,98584.42
2019-06-10T12:46:08.036Z,98607.67
2019-06-10T12:48:37.576Z,98598.42
2019-06-10T12:51:09.458Z,98591.85
2019-06-10T12:53:38.353Z,98571.45
2019-06-10T12:56:10.903Z,98536.67
2019-06-10T12:58:39.193Z,98507.99
2019-06-10T13:01:08.776Z,98512.41
2019-06-10T13:03:38.306Z,98523.25
2019-06-10T13:06:09.675Z,98519.93
2019-06-10T13:08:42.636Z,98517.45
2019-06-10T13:11:13.277Z,98522.56
2019-06-10T13:13:43.038Z,98529.56
2019-06-10T13:16:13.978Z,98542.41
2019-06-10T13:18:44.096Z,98555.84
2019-06-10T13:21:17.572Z,98562.74
2019-06-10T13:23:44.942Z,98558.72
2019-06-10T13:26:16.749Z,98557.14
2019-06-10T13:28:45.707Z,98553.16
2019-06-10T13:31:15.609Z,98554.47
2019-06-10T13:33:45.680Z,98554.19
2019-06-10T13:36:15.379Z,98548.72
2019-06-10T13:38:45.035Z,98545.52
2019-06-10T13:41:14.954Z,98529.13
2019-06-10T13:43:44.714Z,98535.37
2019-06-10T13:46:14.380Z,98558.47
2019-06-10T13:48:44.577Z,98583.37
2019-06-10T13:51:15.775Z,98593.32
2019-06-10T13:53:46.413Z,98610.79
2019-06-10T13:56:37.808Z,98626.41
2019-06-10T13:58:47.453Z,98627.64
2019-06-10T14:01:21.479Z,98609.78
2019-06-10T14:03:48.298Z,98605.43
2019-06-10T14:06:37.106Z,98594.41
2019-06-10T14:08:49.060Z,98574.48
2019-06-10T14:11:19.178Z,98566.89
2019-06-10T14:13:49.190Z,98563.84
2019-06-10T14:16:18.795Z,98556.19
2019-06-10T14:18:48.386Z,98561.16
2019-06-10T14:21:18.738Z,98570.57
2019-06-10T14:23:48.395Z,98577.19
2019-06-10T14:26:25.600Z,98579.06
2019-06-10T14:28:49.169Z,98583.09
2019-06-10T14:31:38.349Z,98583.56
2019-06-10T14:33:49.941Z,98582.97
2019-06-10T14:36:22.033Z,98569.09
2019-06-10T14:38:50.713Z,98556.86
2019-06-10T14:41:23.116Z,98536.39
2019-06-10T14:43:53.136Z,98526.59
2019-06-10T14:46:23.176Z,98507.80
2019-06-10T14:48:53.303Z,98474.19
2019-06-10T14:51:23.142Z,98469.75
2019-06-10T14:53:52.702Z,98460.09
2019-06-10T14:56:23.365Z,98464.58
2019-06-10T14:58:53.562Z,98464.02
2019-06-10T15:01:25.588Z,98450.98
2019-06-10T15:03:54.611Z,98432.38
2019-06-10T15:06:24.139Z,98413.69
2019-06-10T15:08:54.037Z,98437.35
2019-06-10T15:11:27.305Z,98446.62
2019-06-10T15:13:54.876Z,98440.32
2019-06-10T15:16:24.480Z,98448.67
2019-06-10T15:19:08.270Z,98461.18
2019-06-10T15:21:25.660Z,98464.02
2019-06-10T15:23:55.456Z,98462.63
2019-06-10T15:26:24.993Z,98459.25
2019-06-10T15:28:54.506Z,98448.46
2019-06-10T15:31:24.045Z,98452.06
2019-06-10T15:33:53.568Z,98457.40
2019-06-10T15:36:23.239Z,98462.76
2019-06-10T15:38:52.768Z,98484.88
2019-06-10T15:41:24.617Z,98485.56
2019-06-10T15:43:53.825Z,98480.31
2019-06-10T15:46:23.409Z,98482.05
2019-06-10T15:48:54.156Z,98492.69
2019-06-10T15:51:26.079Z,98493.64
2019-06-10T15:53:55.495Z,98496.63
2019-06-10T15:56:38.670Z,98497.80
2019-06-10T15:58:56.405Z,98500.28
2019-06-10T16:01:27.429Z,98507.27
2019-06-10T16:03:57.126Z,98512.38
2019-06-10T16:06:26.726Z,98529.39
2019-06-10T16:08:56.408Z,98529.24
2019-06-10T16:11:27.170Z,98526.67
2019-06-10T16:13:56.933Z,98522.12
2019-06-10T16:16:26.440Z,98533.79
2019-06-10T16:18:55.975Z,98530.05
2019-06-10T16:21:25.493Z,98523.80
2019-06-10T16:23:55.102Z,98530.97
2019-06-10T16:26:26.717Z,98541.30
2019-06-10T16:28:55.951Z,98524.66
2019-06-10T16:31:27.329Z,98511.54
2019-06-10T16:33:56.804Z,98511.26
2019-06-10T16:36:28.011Z,98502.35
2019-06-10T16:38:57.580Z,98524.36
2019-06-10T16:41:28.098Z,98529.61
2019-06-10T16:43:57.872Z,98521.17
2019-06-10T16:46:29.096Z,98522.87
2019-06-10T16:48:58.754Z,98528.26
2019-06-10T16:51:29.795Z,98531.02
2019-06-10T16:53:59.630Z,98533.50
2019-06-10T16:56:30.943Z,98547.65
2019-06-10T16:59:02.822Z,98548.06
2019-06-10T17:01:33.211Z,98549.48
2019-06-10T17:04:02.923Z,98546.25
2019-06-10T17:06:32.805Z,98541.98
2019-06-10T17:09:02.897Z,98542.68
2019-06-10T17:11:32.433Z,98556.17
2019-06-10T17:14:03.089Z,98550.36
2019-06-10T17:16:32.919Z,98553.23
2019-06-10T17:19:02.576Z,98546.11
2019-06-10T17:21:34.609Z,98550.88
2019-06-10T17:24:03.633Z,98555.56
2019-06-10T17:26:37.889Z,98562.08
2019-06-10T17:29:04.689Z,98560.91
2019-06-10T17:31:35.127Z,98560.30
2019-06-10T17:34:04.958Z,98556.50
2019-06-10T17:36:35.404Z,98556.92
2019-06-10T17:39:08.925Z,98550.37
2019-06-10T17:41:38.944Z,98542.81
2019-06-10T17:44:09.075Z,98536.77
2019-06-10T17:46:38.584Z,98532.83
2019-06-10T17:49:08.118Z,98525.39
2019-06-10T17:51:37.698Z,98530.55
2019-06-10T17:54:07.304Z,98532.73
2019-06-10T17:56:36.821Z,98519.95
2019-06-10T17:59:06.371Z,98507.59
2019-06-10T18:01:35.953Z,98504.16
2019-06-10T18:04:05.749Z,98513.67
2019-06-10T18:06:36.468Z,98523.22
2019-06-10T18:09:08.056Z,98515.46
2019-06-10T18:11:38.177Z,98512.30
2019-06-10T18:14:08.239Z,98505.24
2019-06-10T18:16:37.746Z,98487.63
2019-06-10T18:19:07.354Z,98492.39
2019-06-10T18:21:36.935Z,98498.11
2019-06-10T18:24:08.436Z,98499.62
2019-06-10T18:26:38.072Z,98501.30
2019-06-10T18:29:09.235Z,98503.31
2019-06-10T18:31:39.360Z,98501.05
2019-06-10T18:34:08.915Z,98488.54
2019-06-10T18:36:38.555Z,98475.16
2019-06-10T18:39:08.920Z,98479.14
2019-06-10T18:41:40.085Z,98477.09
2019-06-10T18:44:21.811Z,98480.00
2019-06-10T18:46:43.333Z,98479.25
2019-06-10T18:49:13.570Z,98463.70
2019-06-10T18:51:43.655Z,98461.78
2019-06-10T18:54:13.372Z,98459.30
2019-06-10T18:56:43.171Z,98453.13
2019-06-10T18:59:19.595Z,98460.66
2019-06-10T19:01:44.197Z,98462.85
2019-06-10T19:04:13.734Z,98469.73
2019-06-10T19:06:43.348Z,98468.23
2019-06-10T19:09:13.313Z,98463.46
2019-06-10T19:11:43.509Z,98452.36
2019-06-10T19:14:13.219Z,98446.75
2019-06-10T19:16:43.053Z,98435.70
2019-06-10T19:19:12.911Z,98444.27
2019-06-10T19:21:44.150Z,98437.38
2019-06-10T19:24:13.882Z,98441.65
2019-06-10T19:26:45.194Z,98440.56
2019-06-10T19:29:30.020Z,98455.80
2019-06-10T19:31:46.575Z,98466.17
2019-06-10T19:34:16.134Z,98484.77
2019-06-10T19:36:45.676Z,98476.56
2019-06-10T19:39:15.187Z,98453.06
2019-06-10T19:41:47.419Z,98446.08
2019-06-10T19:44:16.316Z,98451.33
2019-06-10T19:46:45.949Z,98449.80
2019-06-10T19:49:15.455Z,98454.16
2019-06-10T19:51:46.916Z,98464.50
2019-06-10T19:54:16.238Z,98470.34
2019-06-10T19:56:45.788Z,98481.34
2019-06-10T19:59:15.303Z,98496.23
2019-06-10T20:01:47.820Z,98498.63
2019-06-10T20:04:18.138Z,98499.13
2019-06-10T20:06:50.660Z,98487.19
2019-06-10T20:09:19.238Z,98492.06
2019-06-10T20:11:48.781Z,98493.45
2019-06-10T20:14:18.295Z,98489.42
2019-06-10T20:16:48.226Z,98473.27
2019-06-10T20:19:17.914Z,98476.31
2019-06-10T20:21:48.969Z,98459.39
2019-06-10T20:24:18.734Z,98436.39
2019-06-10T20:26:48.267Z,98427.55
2019-06-10T20:29:17.773Z,98438.64
2019-06-10T20:31:48.853Z,98446.87
2019-06-10T20:34:19.655Z,98446.73
2019-06-10T20:36:50.064Z,98452.45
2019-06-10T20:39:19.570Z,98482.69
2019-06-10T20:41:52.096Z,98503.56
2019-06-10T20:44:22.286Z,98512.67
2019-06-10T20:46:52.925Z,98516.27
2019-06-10T20:49:22.749Z,98508.92
2019-06-10T20:52:07.088Z,98513.59
2019-06-10T20:54:24.371Z,98526.09
2019-06-10T20:56:53.934Z,98535.59
2019-06-10T20:59:26.135Z,98534.28
2019-06-10T21:01:54.815Z,98530.02
2019-06-10T21:04:24.504Z,98525.62
2019-06-10T21:06:55.975Z,98511.58
2019-06-10T21:09:27.650Z,98496.05
2019-06-10T21:11:57.314Z,98471.62
2019-06-10T21:14:26.877Z,98474.71
2019-06-10T21:16:56.455Z,98466.52
2019-06-10T21:19:26.028Z,98450.19
2019-06-10T21:21:55.559Z,98442.66
2019-06-10T21:24:25.074Z,98451.96
2019-06-10T21:26:55.100Z,98455.43
2019-06-10T21:29:24.745Z,98467.16
2019-06-10T21:31:55.076Z,98469.22
2019-06-10T21:34:24.826Z,98469.35
2019-06-10T21:36:54.716Z,98464.14
2019-06-10T21:39:24.552Z,98464.24
2019-06-10T21:41:55.138Z,98460.28
2019-06-10T21:44:24.651Z,98452.44
2019-06-10T21:46:54.159Z,98448.08
2019-06-10T21:49:24.010Z,98435.52
2019-06-10T21:51:56.778Z,98423.64
2019-06-10T21:54:24.840Z,98411.84
2019-06-10T21:56:55.526Z,98414.60
2019-06-10T21:59:25.364Z,98413.49
2019-06-10T22:01:54.884Z,98417.36
2019-06-10T22:04:24.409Z,98406.88
2019-06-10T22:06:55.932Z,98402.67
2019-06-10T22:09:25.192Z,98393.41
2019-06-10T22:11:55.914Z,98372.03
2019-06-10T22:14:25.631Z,98365.48
2019-06-10T22:16:56.476Z,98378.14
2019-06-10T22:19:26.212Z,98377.11
2019-06-10T22:21:56.741Z,98363.66
2019-06-10T22:24:26.775Z,98351.07
2019-06-10T22:26:56.276Z,98351.39
2019-06-10T22:29:26.077Z,98354.75
2019-06-10T22:31:57.194Z,98357.09
2019-06-10T22:34:26.996Z,98368.03
2019-06-10T22:36:57.651Z,98374.76
2019-06-10T22:39:27.407Z,98374.39
2019-06-10T22:41:57.161Z,98375.05
2019-06-10T22:44:26.900Z,98379.19
2019-06-10T22:46:57.226Z,98402.39
2019-06-10T22:49:27.454Z,98416.56
2019-06-10T22:52:00.050Z,98440.88
2019-06-10T22:54:28.286Z,98461.62
2019-06-10T22:56:58.408Z,98483.87
2019-06-10T22:59:28.217Z,98487.44
2019-06-10T23:01:58.723Z,98488.98
2019-06-10T23:04:28.978Z,98486.23
2019-06-10T23:06:59.896Z,98490.76
2019-06-10T23:09:29.883Z,98495.66
2019-06-10T23:11:59.384Z,98493.14
2019-06-10T23:14:28.919Z,98465.41
2019-06-10T23:16:59.920Z,98443.73
2019-06-10T23:19:29.681Z,98459.67
2019-06-10T23:22:00.125Z,98457.59
2019-06-10T23:24:32.261Z,98444.13
2019-06-10T23:27:03.399Z,98423.17
2019-06-10T23:29:33.202Z,98417.10
2019-06-10T23:32:06.862Z,98406.05
2019-06-10T23:34:33.948Z,98398.06
2019-06-10T23:37:03.529Z,98392.56
2019-06-10T23:39:33.624Z,98401.13
2019-06-10T23:42:04.181Z,98391.25
2019-06-10T23:44:34.552Z,98395.31
2019-06-10T23:47:04.363Z,98401.59
2019-06-10T23:49:34.081Z,98418.41
2019-06-10T23:52:05.349Z,98421.13
2019-06-10T23:54:34.843Z,98426.37
2019-06-10T23:57:06.053Z,98429.25
2019-06-10T23:59:35.619Z,98428.41
